sensor_id;sensor_type;location;lat;lon;timestamp;P1;durP1;ratioP1;P2;durP2;ratioP2
44480;SDS011;30184;42.018;23.670;2024-01-16T00:01:47;151.57;;;65.38;;
44480;SDS011;30184;42.018;23.670;2024-01-16T00:04:17;138.20;;;58.05;;
44480;SDS011;30184;42.018;23.670;2024-01-16T00:06:46;120.63;;;53.50;;
44480;SDS011;30184;42.018;23.670;2024-01-16T00:09:15;95.82;;;48.97;;
44480;SDS011;30184;42.018;23.670;2024-01-16T00:11:46;116.63;;;48.83;;
44480;SDS011;30184;42.018;23.670;2024-01-16T00:14:15;117.50;;;45.47;;
44480;SDS011;30184;42.018;23.670;2024-01-16T00:16:45;83.82;;;41.60;;
44480;SDS011;30184;42.018;23.670;2024-01-16T00:19:15;82.28;;;38.92;;
44480;SDS011;30184;42.018;23.670;2024-01-16T00:21:44;75.38;;;37.78;;
44480;SDS011;30184;42.018;23.670;2024-01-16T00:24:14;84.10;;;38.95;;
44480;SDS011;30184;42.018;23.670;2024-01-16T00:26:44;79.35;;;36.92;;
44480;SDS011;30184;42.018;23.670;2024-01-16T00:29:15;79.20;;;32.15;;
44480;SDS011;30184;42.018;23.670;2024-01-16T00:31:44;66.90;;;33.33;;
44480;SDS011;30184;42.018;23.670;2024-01-16T00:34:13;78.70;;;36.95;;
44480;SDS011;30184;42.018;23.670;2024-01-16T00:36:42;81.40;;;37.05;;
44480;SDS011;30184;42.018;23.670;2024-01-16T00:39:12;85.55;;;40.53;;
44480;SDS011;30184;42.018;23.670;2024-01-16T00:41:41;79.85;;;36.70;;
44480;SDS011;30184;42.018;23.670;2024-01-16T00:44:10;77.35;;;36.05;;
44480;SDS011;30184;42.018;23.670;2024-01-16T00:46:41;49.38;;;24.55;;
44480;SDS011;30184;42.018;23.670;2024-01-16T00:49:10;58.28;;;27.08;;
44480;SDS011;30184;42.018;23.670;2024-01-16T00:51:40;46.50;;;23.38;;
44480;SDS011;30184;42.018;23.670;2024-01-16T00:54:09;51.67;;;26.17;;
44480;SDS011;30184;42.018;23.670;2024-01-16T00:56:41;57.10;;;26.95;;
44480;SDS011;30184;42.018;23.670;2024-01-16T00:59:10;60.38;;;21.52;;
44480;SDS011;30184;42.018;23.670;2024-01-16T01:01:40;57.03;;;24.02;;
44480;SDS011;30184;42.018;23.670;2024-01-16T01:04:10;39.05;;;20.20;;
44480;SDS011;30184;42.018;23.670;2024-01-16T01:06:39;50.25;;;23.65;;
44480;SDS011;30184;42.018;23.670;2024-01-16T01:09:08;48.33;;;22.67;;
44480;SDS011;30184;42.018;23.670;2024-01-16T01:11:39;42.40;;;23.38;;
44480;SDS011;30184;42.018;23.670;2024-01-16T01:14:11;51.28;;;21.20;;
44480;SDS011;30184;42.018;23.670;2024-01-16T01:16:41;50.08;;;24.17;;
44480;SDS011;30184;42.018;23.670;2024-01-16T01:19:10;47.75;;;21.58;;
44480;SDS011;30184;42.018;23.670;2024-01-16T01:21:40;48.10;;;22.90;;
44480;SDS011;30184;42.018;23.670;2024-01-16T01:24:09;33.05;;;16.95;;
44480;SDS011;30184;42.018;23.670;2024-01-16T01:26:38;38.47;;;17.15;;
44480;SDS011;30184;42.018;23.670;2024-01-16T01:29:07;47.38;;;21.95;;
44480;SDS011;30184;42.018;23.670;2024-01-16T01:31:36;30.10;;;17.27;;
44480;SDS011;30184;42.018;23.670;2024-01-16T01:34:07;43.40;;;19.75;;
44480;SDS011;30184;42.018;23.670;2024-01-16T01:36:36;32.30;;;17.65;;
44480;SDS011;30184;42.018;23.670;2024-01-16T01:39:05;37.47;;;19.20;;
44480;SDS011;30184;42.018;23.670;2024-01-16T01:41:35;33.90;;;16.95;;
44480;SDS011;30184;42.018;23.670;2024-01-16T01:44:05;30.75;;;15.73;;
44480;SDS011;30184;42.018;23.670;2024-01-16T01:46:34;45.83;;;22.25;;
44480;SDS011;30184;42.018;23.670;2024-01-16T01:49:04;30.88;;;17.70;;
44480;SDS011;30184;42.018;23.670;2024-01-16T01:51:35;37.08;;;17.00;;
44480;SDS011;30184;42.018;23.670;2024-01-16T01:54:04;70.90;;;26.27;;
44480;SDS011;30184;42.018;23.670;2024-01-16T01:56:34;51.85;;;22.27;;
44480;SDS011;30184;42.018;23.670;2024-01-16T01:59:03;28.20;;;14.07;;
44480;SDS011;30184;42.018;23.670;2024-01-16T02:01:33;46.67;;;17.33;;
44480;SDS011;30184;42.018;23.670;2024-01-16T02:04:03;38.63;;;14.73;;
44480;SDS011;30184;42.018;23.670;2024-01-16T02:06:34;32.80;;;15.45;;
44480;SDS011;30184;42.018;23.670;2024-01-16T02:09:05;39.20;;;12.95;;
44480;SDS011;30184;42.018;23.670;2024-01-16T02:11:35;55.95;;;22.30;;
44480;SDS011;30184;42.018;23.670;2024-01-16T02:14:05;58.65;;;19.23;;
44480;SDS011;30184;42.018;23.670;2024-01-16T02:16:35;52.85;;;22.17;;
44480;SDS011;30184;42.018;23.670;2024-01-16T02:19:05;31.67;;;15.50;;
44480;SDS011;30184;42.018;23.670;2024-01-16T02:21:38;32.38;;;13.60;;
44480;SDS011;30184;42.018;23.670;2024-01-16T02:24:10;25.02;;;12.95;;
44480;SDS011;30184;42.018;23.670;2024-01-16T02:26:40;24.77;;;12.52;;
44480;SDS011;30184;42.018;23.670;2024-01-16T02:29:10;23.20;;;11.63;;
44480;SDS011;30184;42.018;23.670;2024-01-16T02:31:39;28.20;;;12.60;;
44480;SDS011;30184;42.018;23.670;2024-01-16T02:34:09;21.33;;;10.75;;
44480;SDS011;30184;42.018;23.670;2024-01-16T02:36:38;51.65;;;19.48;;
44480;SDS011;30184;42.018;23.670;2024-01-16T02:39:07;62.80;;;21.17;;
44480;SDS011;30184;42.018;23.670;2024-01-16T02:41:38;57.78;;;19.88;;
44480;SDS011;30184;42.018;23.670;2024-01-16T02:44:08;45.95;;;18.95;;
44480;SDS011;30184;42.018;23.670;2024-01-16T02:46:37;49.25;;;20.35;;
44480;SDS011;30184;42.018;23.670;2024-01-16T02:49:07;60.78;;;21.42;;
44480;SDS011;30184;42.018;23.670;2024-01-16T02:51:36;34.38;;;15.45;;
44480;SDS011;30184;42.018;23.670;2024-01-16T02:54:06;35.33;;;13.50;;
44480;SDS011;30184;42.018;23.670;2024-01-16T02:56:35;34.38;;;18.05;;
44480;SDS011;30184;42.018;23.670;2024-01-16T02:59:06;34.53;;;14.13;;
44480;SDS011;30184;42.018;23.670;2024-01-16T03:01:35;31.92;;;15.52;;
44480;SDS011;30184;42.018;23.670;2024-01-16T03:04:04;26.92;;;13.68;;
44480;SDS011;30184;42.018;23.670;2024-01-16T03:06:33;48.55;;;21.45;;
44480;SDS011;30184;42.018;23.670;2024-01-16T03:09:02;42.90;;;16.48;;
44480;SDS011;30184;42.018;23.670;2024-01-16T03:11:31;31.80;;;15.43;;
44480;SDS011;30184;42.018;23.670;2024-01-16T03:14:01;40.45;;;17.42;;
44480;SDS011;30184;42.018;23.670;2024-01-16T03:16:32;33.15;;;17.33;;
44480;SDS011;30184;42.018;23.670;2024-01-16T03:19:01;37.45;;;17.85;;
44480;SDS011;30184;42.018;23.670;2024-01-16T03:21:30;39.08;;;18.30;;
44480;SDS011;30184;42.018;23.670;2024-01-16T03:23:59;37.47;;;19.52;;
44480;SDS011;30184;42.018;23.670;2024-01-16T03:26:29;47.33;;;18.42;;
44480;SDS011;30184;42.018;23.670;2024-01-16T03:28:58;58.88;;;22.75;;
44480;SDS011;30184;42.018;23.670;2024-01-16T03:31:27;46.58;;;19.73;;
44480;SDS011;30184;42.018;23.670;2024-01-16T03:33:58;57.33;;;22.73;;
44480;SDS011;30184;42.018;23.670;2024-01-16T03:36:27;43.40;;;21.27;;
44480;SDS011;30184;42.018;23.670;2024-01-16T03:38:57;44.55;;;20.08;;
44480;SDS011;30184;42.018;23.670;2024-01-16T03:41:26;43.72;;;23.67;;
44480;SDS011;30184;42.018;23.670;2024-01-16T03:43:55;50.28;;;26.13;;
44480;SDS011;30184;42.018;23.670;2024-01-16T03:46:24;52.35;;;21.92;;
44480;SDS011;30184;42.018;23.670;2024-01-16T03:48:55;52.65;;;23.55;;
44480;SDS011;30184;42.018;23.670;2024-01-16T03:51:25;45.97;;;20.45;;
44480;SDS011;30184;42.018;23.670;2024-01-16T03:53:54;58.05;;;24.05;;
44480;SDS011;30184;42.018;23.670;2024-01-16T03:56:24;54.40;;;22.48;;
44480;SDS011;30184;42.018;23.670;2024-01-16T03:58:53;56.63;;;23.83;;
44480;SDS011;30184;42.018;23.670;2024-01-16T04:01:29;52.67;;;23.85;;
44480;SDS011;30184;42.018;23.670;2024-01-16T04:03:59;79.55;;;28.40;;
44480;SDS011;30184;42.018;23.670;2024-01-16T04:06:30;52.45;;;25.17;;
44480;SDS011;30184;42.018;23.670;2024-01-16T04:09:00;49.85;;;22.85;;
44480;SDS011;30184;42.018;23.670;2024-01-16T04:11:30;45.05;;;21.60;;
44480;SDS011;30184;42.018;23.670;2024-01-16T04:13:59;43.85;;;24.80;;
44480;SDS011;30184;42.018;23.670;2024-01-16T04:16:28;54.17;;;24.35;;
44480;SDS011;30184;42.018;23.670;2024-01-16T04:18:57;97.13;;;28.33;;
44480;SDS011;30184;42.018;23.670;2024-01-16T04:21:26;56.10;;;26.05;;
44480;SDS011;30184;42.018;23.670;2024-01-16T04:23:57;67.25;;;28.45;;
44480;SDS011;30184;42.018;23.670;2024-01-16T04:26:26;56.50;;;26.13;;
44480;SDS011;30184;42.018;23.670;2024-01-16T04:28:56;59.65;;;26.92;;
44480;SDS011;30184;42.018;23.670;2024-01-16T04:31:26;60.25;;;27.33;;
44480;SDS011;30184;42.018;23.670;2024-01-16T04:33:55;60.20;;;27.77;;
44480;SDS011;30184;42.018;23.670;2024-01-16T04:36:24;57.33;;;30.30;;
44480;SDS011;30184;42.018;23.670;2024-01-16T04:38:53;60.55;;;28.15;;
44480;SDS011;30184;42.018;23.670;2024-01-16T04:41:25;68.63;;;28.80;;
44480;SDS011;30184;42.018;23.670;2024-01-16T04:43:54;76.43;;;32.78;;
44480;SDS011;30184;42.018;23.670;2024-01-16T04:46:23;85.78;;;33.55;;
44480;SDS011;30184;42.018;23.670;2024-01-16T04:48:52;109.15;;;41.60;;
44480;SDS011;30184;42.018;23.670;2024-01-16T04:51:21;88.47;;;35.67;;
44480;SDS011;30184;42.018;23.670;2024-01-16T04:53:52;119.28;;;41.60;;
44480;SDS011;30184;42.018;23.670;2024-01-16T04:56:21;117.57;;;46.15;;
44480;SDS011;30184;42.018;23.670;2024-01-16T04:58:51;86.50;;;39.28;;
44480;SDS011;30184;42.018;23.670;2024-01-16T05:01:20;106.88;;;41.45;;
44480;SDS011;30184;42.018;23.670;2024-01-16T05:03:50;105.45;;;42.55;;
44480;SDS011;30184;42.018;23.670;2024-01-16T05:06:19;107.25;;;41.95;;
44480;SDS011;30184;42.018;23.670;2024-01-16T05:08:48;103.78;;;45.03;;
44480;SDS011;30184;42.018;23.670;2024-01-16T05:11:18;116.68;;;46.92;;
44480;SDS011;30184;42.018;23.670;2024-01-16T05:13:47;99.53;;;42.38;;
44480;SDS011;30184;42.018;23.670;2024-01-16T05:16:18;135.90;;;49.80;;
44480;SDS011;30184;42.018;23.670;2024-01-16T05:18:48;134.82;;;50.05;;
44480;SDS011;30184;42.018;23.670;2024-01-16T05:21:17;131.10;;;52.85;;
44480;SDS011;30184;42.018;23.670;2024-01-16T05:23:46;127.50;;;49.20;;
44480;SDS011;30184;42.018;23.670;2024-01-16T05:26:15;170.63;;;63.22;;
44480;SDS011;30184;42.018;23.670;2024-01-16T05:28:44;136.18;;;51.88;;
44480;SDS011;30184;42.018;23.670;2024-01-16T05:31:14;124.55;;;52.35;;
44480;SDS011;30184;42.018;23.670;2024-01-16T05:33:46;147.75;;;53.95;;
44480;SDS011;30184;42.018;23.670;2024-01-16T05:36:19;106.30;;;45.45;;
44480;SDS011;30184;42.018;23.670;2024-01-16T05:38:48;128.68;;;53.10;;
44480;SDS011;30184;42.018;23.670;2024-01-16T05:41:18;103.97;;;47.20;;
44480;SDS011;30184;42.018;23.670;2024-01-16T05:43:47;129.15;;;48.20;;
44480;SDS011;30184;42.018;23.670;2024-01-16T05:46:16;152.95;;;56.97;;
44480;SDS011;30184;42.018;23.670;2024-01-16T05:48:48;129.02;;;56.63;;
44480;SDS011;30184;42.018;23.670;2024-01-16T05:51:17;134.07;;;54.72;;
44480;SDS011;30184;42.018;23.670;2024-01-16T05:53:46;129.35;;;54.58;;
44480;SDS011;30184;42.018;23.670;2024-01-16T05:56:15;141.80;;;51.03;;
44480;SDS011;30184;42.018;23.670;2024-01-16T05:58:45;119.93;;;50.58;;
44480;SDS011;30184;42.018;23.670;2024-01-16T06:01:14;111.70;;;48.72;;
44480;SDS011;30184;42.018;23.670;2024-01-16T06:03:48;107.93;;;42.85;;
44480;SDS011;30184;42.018;23.670;2024-01-16T06:06:17;96.22;;;41.78;;
44480;SDS011;30184;42.018;23.670;2024-01-16T06:08:50;88.07;;;38.38;;
44480;SDS011;30184;42.018;23.670;2024-01-16T06:11:29;91.55;;;39.95;;
44480;SDS011;30184;42.018;23.670;2024-01-16T06:14:01;81.93;;;32.40;;
44480;SDS011;30184;42.018;23.670;2024-01-16T06:16:33;81.55;;;35.70;;
44480;SDS011;30184;42.018;23.670;2024-01-16T06:19:04;59.35;;;30.38;;
44480;SDS011;30184;42.018;23.670;2024-01-16T06:21:35;138.55;;;51.65;;
44480;SDS011;30184;42.018;23.670;2024-01-16T06:24:05;97.15;;;41.10;;
44480;SDS011;30184;42.018;23.670;2024-01-16T06:26:34;99.18;;;39.88;;
44480;SDS011;30184;42.018;23.670;2024-01-16T06:29:04;82.20;;;38.60;;
44480;SDS011;30184;42.018;23.670;2024-01-16T06:31:34;88.47;;;40.67;;
44480;SDS011;30184;42.018;23.670;2024-01-16T06:34:05;105.07;;;46.40;;
44480;SDS011;30184;42.018;23.670;2024-01-16T06:36:36;97.05;;;41.28;;
44480;SDS011;30184;42.018;23.670;2024-01-16T06:39:05;92.30;;;40.47;;
44480;SDS011;30184;42.018;23.670;2024-01-16T06:41:35;115.93;;;50.65;;
44480;SDS011;30184;42.018;23.670;2024-01-16T06:44:05;136.40;;;59.85;;
44480;SDS011;30184;42.018;23.670;2024-01-16T06:46:35;131.48;;;57.47;;
44480;SDS011;30184;42.018;23.670;2024-01-16T06:49:06;136.90;;;56.40;;
44480;SDS011;30184;42.018;23.670;2024-01-16T06:51:36;131.82;;;54.65;;
44480;SDS011;30184;42.018;23.670;2024-01-16T06:54:05;123.75;;;52.47;;
44480;SDS011;30184;42.018;23.670;2024-01-16T06:56:35;164.35;;;63.22;;
44480;SDS011;30184;42.018;23.670;2024-01-16T06:59:04;159.93;;;65.72;;
44480;SDS011;30184;42.018;23.670;2024-01-16T07:01:35;144.50;;;61.72;;
44480;SDS011;30184;42.018;23.670;2024-01-16T07:04:05;144.32;;;67.47;;
44480;SDS011;30184;42.018;23.670;2024-01-16T07:06:36;113.65;;;49.33;;
44480;SDS011;30184;42.018;23.670;2024-01-16T07:09:06;93.07;;;41.20;;
44480;SDS011;30184;42.018;23.670;2024-01-16T07:11:38;118.18;;;43.35;;
44480;SDS011;30184;42.018;23.670;2024-01-16T07:14:10;105.70;;;47.15;;
44480;SDS011;30184;42.018;23.670;2024-01-16T07:16:39;122.10;;;52.17;;
44480;SDS011;30184;42.018;23.670;2024-01-16T07:19:10;160.43;;;65.03;;
44480;SDS011;30184;42.018;23.670;2024-01-16T07:21:39;175.05;;;73.22;;
44480;SDS011;30184;42.018;23.670;2024-01-16T07:24:09;226.02;;;97.05;;
44480;SDS011;30184;42.018;23.670;2024-01-16T07:26:39;125.18;;;54.00;;
44480;SDS011;30184;42.018;23.670;2024-01-16T07:29:09;164.25;;;71.57;;
44480;SDS011;30184;42.018;23.670;2024-01-16T07:31:38;127.15;;;53.53;;
44480;SDS011;30184;42.018;23.670;2024-01-16T07:34:07;107.20;;;46.10;;
44480;SDS011;30184;42.018;23.670;2024-01-16T07:36:38;54.03;;;26.75;;
44480;SDS011;30184;42.018;23.670;2024-01-16T07:39:08;71.60;;;27.65;;
44480;SDS011;30184;42.018;23.670;2024-01-16T07:41:37;138.30;;;54.92;;
44480;SDS011;30184;42.018;23.670;2024-01-16T07:44:07;113.63;;;48.78;;
44480;SDS011;30184;42.018;23.670;2024-01-16T07:46:35;114.65;;;51.88;;
44480;SDS011;30184;42.018;23.670;2024-01-16T07:49:04;115.80;;;52.90;;
44480;SDS011;30184;42.018;23.670;2024-01-16T07:51:34;115.47;;;55.30;;
44480;SDS011;30184;42.018;23.670;2024-01-16T07:54:06;169.50;;;66.45;;
44480;SDS011;30184;42.018;23.670;2024-01-16T07:56:36;208.05;;;84.53;;
44480;SDS011;30184;42.018;23.670;2024-01-16T07:59:06;181.20;;;83.10;;
44480;SDS011;30184;42.018;23.670;2024-01-16T08:01:35;102.80;;;45.72;;
44480;SDS011;30184;42.018;23.670;2024-01-16T08:04:05;69.68;;;33.95;;
44480;SDS011;30184;42.018;23.670;2024-01-16T08:06:34;81.20;;;39.90;;
44480;SDS011;30184;42.018;23.670;2024-01-16T08:09:06;86.05;;;39.25;;
44480;SDS011;30184;42.018;23.670;2024-01-16T08:11:35;109.47;;;45.92;;
44480;SDS011;30184;42.018;23.670;2024-01-16T08:14:05;128.95;;;54.03;;
44480;SDS011;30184;42.018;23.670;2024-01-16T08:16:38;114.80;;;53.08;;
44480;SDS011;30184;42.018;23.670;2024-01-16T08:19:07;107.20;;;51.10;;
44480;SDS011;30184;42.018;23.670;2024-01-16T08:21:37;96.93;;;41.85;;
44480;SDS011;30184;42.018;23.670;2024-01-16T08:24:11;124.07;;;49.45;;
44480;SDS011;30184;42.018;23.670;2024-01-16T08:26:41;113.10;;;45.05;;
44480;SDS011;30184;42.018;23.670;2024-01-16T08:29:10;101.20;;;39.75;;
44480;SDS011;30184;42.018;23.670;2024-01-16T08:31:40;68.57;;;30.08;;
44480;SDS011;30184;42.018;23.670;2024-01-16T08:34:09;43.08;;;20.52;;
44480;SDS011;30184;42.018;23.670;2024-01-16T08:36:41;61.13;;;24.95;;
44480;SDS011;30184;42.018;23.670;2024-01-16T08:39:12;56.35;;;25.38;;
44480;SDS011;30184;42.018;23.670;2024-01-16T08:41:43;48.35;;;23.77;;
44480;SDS011;30184;42.018;23.670;2024-01-16T08:44:15;44.08;;;20.35;;
44480;SDS011;30184;42.018;23.670;2024-01-16T08:46:46;59.38;;;24.58;;
44480;SDS011;30184;42.018;23.670;2024-01-16T08:49:15;121.72;;;48.83;;
44480;SDS011;30184;42.018;23.670;2024-01-16T08:51:52;77.35;;;33.60;;
44480;SDS011;30184;42.018;23.670;2024-01-16T08:54:23;86.70;;;41.38;;
44480;SDS011;30184;42.018;23.670;2024-01-16T08:56:53;86.00;;;35.13;;
44480;SDS011;30184;42.018;23.670;2024-01-16T08:59:22;76.70;;;34.70;;
44480;SDS011;30184;42.018;23.670;2024-01-16T09:01:52;110.47;;;46.42;;
44480;SDS011;30184;42.018;23.670;2024-01-16T09:04:21;85.38;;;38.15;;
44480;SDS011;30184;42.018;23.670;2024-01-16T09:06:51;99.03;;;43.47;;
44480;SDS011;30184;42.018;23.670;2024-01-16T09:09:20;77.00;;;36.30;;
44480;SDS011;30184;42.018;23.670;2024-01-16T09:11:51;80.05;;;37.15;;
44480;SDS011;30184;42.018;23.670;2024-01-16T09:14:22;100.03;;;43.45;;
44480;SDS011;30184;42.018;23.670;2024-01-16T09:16:52;93.90;;;37.35;;
44480;SDS011;30184;42.018;23.670;2024-01-16T09:19:21;92.95;;;37.92;;
44480;SDS011;30184;42.018;23.670;2024-01-16T09:21:51;57.85;;;26.20;;
44480;SDS011;30184;42.018;23.670;2024-01-16T09:24:20;175.13;;;57.88;;
44480;SDS011;30184;42.018;23.670;2024-01-16T09:26:51;56.28;;;27.02;;
44480;SDS011;30184;42.018;23.670;2024-01-16T09:29:21;100.97;;;49.97;;
44480;SDS011;30184;42.018;23.670;2024-01-16T09:31:52;99.10;;;38.65;;
44480;SDS011;30184;42.018;23.670;2024-01-16T09:34:21;124.80;;;46.33;;
44480;SDS011;30184;42.018;23.670;2024-01-16T09:37:04;97.57;;;41.40;;
44480;SDS011;30184;42.018;23.670;2024-01-16T09:39:35;144.70;;;68.30;;
44480;SDS011;30184;42.018;23.670;2024-01-16T09:42:05;99.60;;;47.80;;
44480;SDS011;30184;42.018;23.670;2024-01-16T09:44:35;99.90;;;45.00;;
44480;SDS011;30184;42.018;23.670;2024-01-16T09:47:05;156.10;;;63.40;;
44480;SDS011;30184;42.018;23.670;2024-01-16T09:49:37;141.02;;;59.47;;
44480;SDS011;30184;42.018;23.670;2024-01-16T09:52:07;181.57;;;70.88;;
44480;SDS011;30184;42.018;23.670;2024-01-16T09:54:38;276.00;;;87.68;;
44480;SDS011;30184;42.018;23.670;2024-01-16T09:57:12;110.13;;;46.75;;
44480;SDS011;30184;42.018;23.670;2024-01-16T09:59:44;175.85;;;79.00;;
44480;SDS011;30184;42.018;23.670;2024-01-16T10:02:14;165.13;;;75.10;;
44480;SDS011;30184;42.018;23.670;2024-01-16T10:04:43;387.73;;;126.28;;
44480;SDS011;30184;42.018;23.670;2024-01-16T10:07:14;126.15;;;59.80;;
44480;SDS011;30184;42.018;23.670;2024-01-16T10:09:45;108.47;;;47.70;;
44480;SDS011;30184;42.018;23.670;2024-01-16T10:12:15;80.47;;;35.50;;
44480;SDS011;30184;42.018;23.670;2024-01-16T10:14:44;126.18;;;50.67;;
44480;SDS011;30184;42.018;23.670;2024-01-16T10:17:14;97.20;;;42.75;;
44480;SDS011;30184;42.018;23.670;2024-01-16T10:19:49;101.80;;;41.42;;
44480;SDS011;30184;42.018;23.670;2024-01-16T10:22:22;84.25;;;35.97;;
44480;SDS011;30184;42.018;23.670;2024-01-16T10:25:07;60.90;;;31.20;;
44480;SDS011;30184;42.018;23.670;2024-01-16T10:27:47;78.93;;;34.65;;
44480;SDS011;30184;42.018;23.670;2024-01-16T10:30:21;68.85;;;29.90;;
44480;SDS011;30184;42.018;23.670;2024-01-16T10:32:51;63.10;;;25.13;;
44480;SDS011;30184;42.018;23.670;2024-01-16T10:35:23;49.78;;;23.30;;
44480;SDS011;30184;42.018;23.670;2024-01-16T10:37:55;30.25;;;16.80;;
44480;SDS011;30184;42.018;23.670;2024-01-16T10:40:27;49.22;;;24.35;;
44480;SDS011;30184;42.018;23.670;2024-01-16T10:43:01;48.38;;;19.33;;
44480;SDS011;30184;42.018;23.670;2024-01-16T10:45:35;29.80;;;13.60;;
44480;SDS011;30184;42.018;23.670;2024-01-16T10:48:08;44.13;;;18.05;;
44480;SDS011;30184;42.018;23.670;2024-01-16T10:50:39;34.50;;;15.13;;
44480;SDS011;30184;42.018;23.670;2024-01-16T10:53:10;45.20;;;20.65;;
44480;SDS011;30184;42.018;23.670;2024-01-16T10:55:48;43.50;;;20.30;;
44480;SDS011;30184;42.018;23.670;2024-01-16T10:58:19;253.20;;;74.10;;
44480;SDS011;30184;42.018;23.670;2024-01-16T11:00:52;33.15;;;16.88;;
44480;SDS011;30184;42.018;23.670;2024-01-16T11:03:24;47.55;;;17.17;;
44480;SDS011;30184;42.018;23.670;2024-01-16T11:08:35;15.18;;;8.52;;
44480;SDS011;30184;42.018;23.670;2024-01-16T11:11:08;19.00;;;9.70;;
44480;SDS011;30184;42.018;23.670;2024-01-16T11:13:39;10.23;;;5.68;;
44480;SDS011;30184;42.018;23.670;2024-01-16T11:16:12;37.33;;;15.90;;
44480;SDS011;30184;42.018;23.670;2024-01-16T11:18:46;33.80;;;14.75;;
44480;SDS011;30184;42.018;23.670;2024-01-16T11:21:19;22.55;;;10.45;;
44480;SDS011;30184;42.018;23.670;2024-01-16T11:23:50;13.57;;;6.95;;
44480;SDS011;30184;42.018;23.670;2024-01-16T11:26:26;20.40;;;9.45;;
44480;SDS011;30184;42.018;23.670;2024-01-16T11:35:15;20.27;;;9.25;;
44480;SDS011;30184;42.018;23.670;2024-01-16T11:38:13;10.48;;;7.20;;
44480;SDS011;30184;42.018;23.670;2024-01-16T11:40:47;8.20;;;5.18;;
44480;SDS011;30184;42.018;23.670;2024-01-16T11:43:36;11.50;;;5.22;;
44480;SDS011;30184;42.018;23.670;2024-01-16T11:46:06;4.68;;;3.25;;
44480;SDS011;30184;42.018;23.670;2024-01-16T11:48:36;15.77;;;6.15;;
44480;SDS011;30184;42.018;23.670;2024-01-16T11:51:22;11.75;;;5.57;;
44480;SDS011;30184;42.018;23.670;2024-01-16T11:53:52;17.10;;;7.55;;
44480;SDS011;30184;42.018;23.670;2024-01-16T11:56:31;9.35;;;5.05;;
44480;SDS011;30184;42.018;23.670;2024-01-16T12:02:18;21.63;;;9.75;;
44480;SDS011;30184;42.018;23.670;2024-01-16T12:04:52;43.05;;;12.32;;
44480;SDS011;30184;42.018;23.670;2024-01-16T12:07:24;23.92;;;10.05;;
44480;SDS011;30184;42.018;23.670;2024-01-16T12:09:58;21.77;;;8.80;;
44480;SDS011;30184;42.018;23.670;2024-01-16T12:12:29;8.98;;;3.63;;
44480;SDS011;30184;42.018;23.670;2024-01-16T12:14:59;18.23;;;6.03;;
44480;SDS011;30184;42.018;23.670;2024-01-16T12:17:32;15.30;;;6.90;;
44480;SDS011;30184;42.018;23.670;2024-01-16T12:20:15;10.35;;;5.63;;
44480;SDS011;30184;42.018;23.670;2024-01-16T12:22:45;20.55;;;10.70;;
44480;SDS011;30184;42.018;23.670;2024-01-16T12:25:22;21.08;;;9.48;;
44480;SDS011;30184;42.018;23.670;2024-01-16T12:27:57;28.88;;;11.23;;
44480;SDS011;30184;42.018;23.670;2024-01-16T12:30:27;37.28;;;14.38;;
44480;SDS011;30184;42.018;23.670;2024-01-16T12:33:04;11.88;;;5.30;;
44480;SDS011;30184;42.018;23.670;2024-01-16T12:35:37;18.70;;;6.32;;
44480;SDS011;30184;42.018;23.670;2024-01-16T12:38:08;17.52;;;7.80;;
44480;SDS011;30184;42.018;23.670;2024-01-16T12:40:40;10.13;;;4.82;;
44480;SDS011;30184;42.018;23.670;2024-01-16T12:43:12;19.25;;;6.80;;
44480;SDS011;30184;42.018;23.670;2024-01-16T12:45:41;10.25;;;3.88;;
44480;SDS011;30184;42.018;23.670;2024-01-16T12:48:14;12.15;;;4.10;;
44480;SDS011;30184;42.018;23.670;2024-01-16T12:50:58;13.35;;;5.60;;
44480;SDS011;30184;42.018;23.670;2024-01-16T12:53:30;9.35;;;4.32;;
44480;SDS011;30184;42.018;23.670;2024-01-16T12:56:01;8.57;;;5.65;;
44480;SDS011;30184;42.018;23.670;2024-01-16T12:58:32;9.40;;;6.15;;
44480;SDS011;30184;42.018;23.670;2024-01-16T13:01:22;22.50;;;10.20;;
44480;SDS011;30184;42.018;23.670;2024-01-16T13:04:02;12.25;;;5.80;;
44480;SDS011;30184;42.018;23.670;2024-01-16T13:06:32;13.65;;;6.72;;
44480;SDS011;30184;42.018;23.670;2024-01-16T13:09:06;16.88;;;8.00;;
44480;SDS011;30184;42.018;23.670;2024-01-16T13:11:50;18.23;;;5.82;;
44480;SDS011;30184;42.018;23.670;2024-01-16T13:14:23;23.73;;;10.27;;
44480;SDS011;30184;42.018;23.670;2024-01-16T13:16:59;11.45;;;4.43;;
44480;SDS011;30184;42.018;23.670;2024-01-16T13:19:36;9.32;;;4.90;;
44480;SDS011;30184;42.018;23.670;2024-01-16T13:22:06;8.98;;;4.82;;
44480;SDS011;30184;42.018;23.670;2024-01-16T13:24:36;11.10;;;4.97;;
44480;SDS011;30184;42.018;23.670;2024-01-16T13:27:13;9.13;;;5.32;;
44480;SDS011;30184;42.018;23.670;2024-01-16T13:29:43;6.90;;;3.67;;
44480;SDS011;30184;42.018;23.670;2024-01-16T13:32:13;7.88;;;3.92;;
44480;SDS011;30184;42.018;23.670;2024-01-16T13:34:45;15.18;;;6.22;;
44480;SDS011;30184;42.018;23.670;2024-01-16T13:37:19;17.45;;;6.22;;
44480;SDS011;30184;42.018;23.670;2024-01-16T13:39:51;9.88;;;3.97;;
44480;SDS011;30184;42.018;23.670;2024-01-16T13:42:20;7.05;;;3.97;;
44480;SDS011;30184;42.018;23.670;2024-01-16T13:44:50;12.35;;;5.00;;
44480;SDS011;30184;42.018;23.670;2024-01-16T13:47:30;9.88;;;3.97;;
44480;SDS011;30184;42.018;23.670;2024-01-16T13:50:01;7.70;;;4.50;;
44480;SDS011;30184;42.018;23.670;2024-01-16T13:52:31;9.40;;;4.80;;
44480;SDS011;30184;42.018;23.670;2024-01-16T13:55:01;13.30;;;5.57;;
44480;SDS011;30184;42.018;23.670;2024-01-16T13:57:33;9.02;;;4.18;;
44480;SDS011;30184;42.018;23.670;2024-01-16T14:00:05;12.07;;;5.63;;
44480;SDS011;30184;42.018;23.670;2024-01-16T14:02:39;427.77;;;106.63;;
44480;SDS011;30184;42.018;23.670;2024-01-16T14:05:11;127.95;;;46.58;;
44480;SDS011;30184;42.018;23.670;2024-01-16T14:07:43;14.73;;;8.63;;
44480;SDS011;30184;42.018;23.670;2024-01-16T14:10:22;16.20;;;9.85;;
44480;SDS011;30184;42.018;23.670;2024-01-16T14:12:53;12.43;;;8.20;;
44480;SDS011;30184;42.018;23.670;2024-01-16T14:15:29;15.18;;;6.50;;
44480;SDS011;30184;42.018;23.670;2024-01-16T14:18:00;13.40;;;6.88;;
44480;SDS011;30184;42.018;23.670;2024-01-16T14:20:34;35.80;;;11.57;;
44480;SDS011;30184;42.018;23.670;2024-01-16T14:23:04;23.08;;;11.13;;
44480;SDS011;30184;42.018;23.670;2024-01-16T14:25:34;13.55;;;7.72;;
44480;SDS011;30184;42.018;23.670;2024-01-16T14:28:04;12.65;;;6.88;;
44480;SDS011;30184;42.018;23.670;2024-01-16T14:30:35;10.65;;;6.50;;
44480;SDS011;30184;42.018;23.670;2024-01-16T14:33:10;16.20;;;6.93;;
44480;SDS011;30184;42.018;23.670;2024-01-16T14:35:56;14.50;;;7.35;;
44480;SDS011;30184;42.018;23.670;2024-01-16T14:38:28;18.55;;;6.47;;
44480;SDS011;30184;42.018;23.670;2024-01-16T14:41:06;44.13;;;11.75;;
44480;SDS011;30184;42.018;23.670;2024-01-16T14:43:37;19.00;;;8.07;;